createdAt,value
2023-06-19T00:00:11.180Z,620.67
2023-06-19T00:01:11.224Z,620.52
2023-06-19T00:02:11.327Z,620.97
2023-06-19T00:03:11.293Z,621.31
2023-06-19T00:04:11.165Z,621.99
2023-06-19T00:05:11.148Z,622.17
2023-06-19T00:06:11.142Z,622.30
2023-06-19T00:07:11.117Z,622.02
2023-06-19T00:08:11.112Z,621.79
2023-06-19T00:09:11.099Z,621.51
2023-06-19T00:10:11.077Z,620.97
2023-06-19T00:11:11.072Z,620.65
2023-06-19T00:12:11.063Z,620.46
2023-06-19T00:13:11.058Z,620.51
2023-06-19T00:14:11.042Z,620.67
2023-06-19T00:15:11.084Z,621.09
2023-06-19T00:16:11.064Z,620.90
2023-06-19T00:17:11.013Z,620.98
2023-06-19T00:18:11.023Z,621.37
2023-06-19T00:19:10.983Z,621.56
2023-06-19T00:20:10.964Z,622.12
2023-06-19T00:21:10.953Z,622.91
2023-06-19T00:22:11.010Z,623.48
2023-06-19T00:23:10.951Z,623.88
2023-06-19T00:24:10.987Z,624.05
2023-06-19T00:25:10.921Z,624.89
2023-06-19T00:26:10.971Z,625.03
2023-06-19T00:27:10.879Z,624.96
2023-06-19T00:28:10.895Z,625.46
2023-06-19T00:29:10.891Z,625.52
2023-06-19T00:30:10.849Z,625.62
2023-06-19T00:31:10.830Z,625.33
2023-06-19T00:32:10.817Z,624.78
2023-06-19T00:33:10.872Z,624.45
2023-06-19T00:34:10.826Z,624.31
2023-06-19T00:35:10.789Z,624.41
2023-06-19T00:36:10.786Z,625.04
2023-06-19T00:37:10.761Z,625.59
2023-06-19T00:38:10.775Z,626.00
2023-06-19T00:39:10.745Z,626.04
2023-06-19T00:40:10.752Z,626.08
2023-06-19T00:41:10.715Z,626.00
2023-06-19T00:42:10.722Z,626.32
2023-06-19T00:43:10.743Z,625.90
2023-06-19T00:44:10.699Z,625.97
2023-06-19T00:45:10.711Z,626.66
2023-06-19T00:46:10.656Z,626.90
2023-06-19T00:47:10.659Z,627.04
2023-06-19T00:48:10.663Z,626.61
2023-06-19T00:49:10.614Z,625.82
2023-06-19T00:50:11.080Z,625.25
2023-06-19T00:51:10.596Z,625.44
2023-06-19T00:52:10.596Z,625.83
2023-06-19T00:53:10.593Z,625.76
2023-06-19T00:54:10.586Z,625.69
2023-06-19T00:55:10.592Z,626.02
2023-06-19T00:56:10.788Z,625.59
2023-06-19T00:57:10.524Z,625.31
2023-06-19T00:58:10.557Z,624.75
2023-06-19T00:59:10.507Z,623.99
2023-06-19T01:00:10.532Z,623.27
2023-06-19T01:01:10.590Z,622.68
2023-06-19T01:02:10.609Z,622.02
2023-06-19T01:03:10.628Z,621.77
2023-06-19T01:04:10.562Z,621.92
2023-06-19T01:05:10.426Z,621.77
2023-06-19T01:06:10.923Z,621.56
2023-06-19T01:07:10.616Z,621.49
2023-06-19T01:08:10.436Z,621.83
2023-06-19T01:09:10.368Z,621.47
2023-06-19T01:10:10.390Z,621.04
2023-06-19T01:11:25.026Z,620.63
2023-06-19T01:12:13.691Z,621.04
2023-06-19T01:13:10.344Z,620.65
2023-06-19T01:14:10.314Z,620.55
2023-06-19T01:15:10.310Z,620.32
2023-06-19T01:16:10.327Z,619.93
2023-06-19T01:17:10.415Z,619.87
2023-06-19T01:18:10.316Z,619.82
2023-06-19T01:19:10.280Z,620.00
2023-06-19T01:20:10.253Z,619.98
2023-06-19T01:21:10.255Z,619.43
2023-06-19T01:22:10.260Z,618.98
2023-06-19T01:23:10.249Z,618.77
2023-06-19T01:24:10.238Z,618.75
2023-06-19T01:25:10.188Z,618.34
2023-06-19T01:26:10.231Z,617.84
2023-06-19T01:27:10.182Z,618.07
2023-06-19T01:28:10.158Z,617.74
2023-06-19T01:29:10.176Z,617.94
2023-06-19T01:30:10.176Z,618.13
2023-06-19T01:31:10.132Z,617.85
2023-06-19T01:32:10.137Z,618.20
2023-06-19T01:33:10.224Z,617.93
2023-06-19T01:34:10.107Z,618.04
2023-06-19T01:35:10.087Z,618.69
2023-06-19T01:36:10.106Z,619.01
2023-06-19T01:37:10.100Z,619.52
2023-06-19T01:38:10.056Z,619.46
2023-06-19T01:39:10.054Z,619.88
2023-06-19T01:40:10.032Z,620.06
2023-06-19T01:41:10.020Z,620.03
2023-06-19T01:42:09.988Z,619.82
2023-06-19T01:43:10.020Z,619.45
2023-06-19T01:44:09.970Z,619.05
2023-06-19T01:45:09.989Z,618.89
2023-06-19T01:46:10.076Z,618.54
2023-06-19T01:47:09.941Z,618.74
2023-06-19T01:48:09.961Z,618.96
2023-06-19T01:49:09.955Z,618.98
2023-06-19T01:50:09.923Z,619.12
2023-06-19T01:51:09.921Z,619.35
2023-06-19T01:52:09.952Z,619.50
2023-06-19T01:53:09.964Z,619.31
2023-06-19T01:54:09.876Z,619.33
2023-06-19T01:55:09.875Z,619.28
2023-06-19T01:56:09.832Z,619.40
2023-06-19T01:57:09.821Z,619.77
2023-06-19T01:58:09.845Z,619.42
2023-06-19T01:59:09.808Z,618.91
2023-06-19T02:00:09.779Z,618.38
2023-06-19T02:01:09.824Z,618.41
2023-06-19T02:02:09.876Z,618.44
2023-06-19T02:03:09.869Z,618.70
2023-06-19T02:04:09.787Z,618.58
2023-06-19T02:05:09.729Z,618.37
2023-06-19T02:06:09.735Z,618.49
2023-06-19T02:07:09.708Z,619.20
2023-06-19T02:08:09.704Z,620.00
2023-06-19T02:09:09.687Z,619.51
2023-06-19T02:10:09.703Z,618.66
2023-06-19T02:11:09.678Z,618.02
2023-06-19T02:12:09.676Z,617.23
2023-06-19T02:13:09.634Z,616.52
2023-06-19T02:14:09.609Z,615.99
2023-06-19T02:15:09.614Z,615.22
2023-06-19T02:16:09.672Z,614.78
2023-06-19T02:17:09.593Z,614.48
2023-06-19T02:18:09.599Z,614.46
2023-06-19T02:19:09.549Z,614.76
2023-06-19T02:20:09.547Z,614.74
2023-06-19T02:21:09.551Z,614.58
2023-06-19T02:22:09.577Z,614.87
2023-06-19T02:23:12.387Z,614.83
2023-06-19T02:24:09.537Z,615.17
2023-06-19T02:25:09.515Z,614.84
2023-06-19T02:26:09.479Z,614.79
2023-06-19T02:27:09.461Z,614.64
2023-06-19T02:28:09.455Z,614.60
2023-06-19T02:29:09.464Z,614.66
2023-06-19T02:30:09.453Z,614.63
2023-06-19T02:31:09.446Z,614.56
2023-06-19T02:32:09.430Z,614.75
2023-06-19T02:33:09.452Z,614.31
2023-06-19T02:34:09.403Z,614.30
2023-06-19T02:35:09.389Z,614.68
2023-06-19T02:36:09.413Z,614.92
2023-06-19T02:37:09.422Z,615.34
2023-06-19T02:38:09.339Z,615.93
2023-06-19T02:39:09.340Z,616.33
2023-06-19T02:40:09.329Z,616.94
2023-06-19T02:41:09.317Z,617.49
2023-06-19T02:42:09.334Z,617.89
2023-06-19T02:43:09.307Z,618.12
2023-06-19T02:44:09.280Z,618.53
2023-06-19T02:45:09.267Z,618.81
2023-06-19T02:46:12.200Z,619.54
2023-06-19T02:47:09.254Z,620.02
2023-06-19T02:48:09.258Z,620.85
2023-06-19T02:49:09.224Z,621.12
2023-06-19T02:50:09.198Z,621.84
2023-06-19T02:51:09.195Z,622.58
2023-06-19T02:52:09.193Z,623.01
2023-06-19T02:53:09.237Z,623.53
2023-06-19T02:54:09.194Z,624.34
2023-06-19T02:55:09.155Z,624.64
2023-06-19T02:56:09.129Z,625.08
2023-06-19T02:57:09.129Z,625.43
2023-06-19T02:58:09.097Z,626.73
2023-06-19T02:59:09.126Z,627.26
2023-06-19T03:00:09.091Z,627.76
2023-06-19T03:01:09.130Z,627.78
2023-06-19T03:02:09.108Z,629.37
2023-06-19T03:03:09.202Z,630.05
2023-06-19T03:04:09.052Z,630.82
2023-06-19T03:05:09.021Z,631.19
2023-06-19T03:06:09.009Z,631.30
2023-06-19T03:07:09.000Z,631.34
2023-06-19T03:08:09.009Z,631.45
2023-06-19T03:09:08.981Z,631.66
2023-06-19T03:10:08.962Z,631.92
2023-06-19T03:11:08.961Z,631.71
2023-06-19T03:12:08.944Z,631.58
2023-06-19T03:13:08.988Z,632.24
2023-06-19T03:14:08.924Z,633.20
2023-06-19T03:15:08.924Z,633.96
2023-06-19T03:16:08.928Z,633.37
2023-06-19T03:17:08.925Z,633.57
2023-06-19T03:18:08.915Z,633.53
2023-06-19T03:19:08.870Z,633.33
2023-06-19T03:20:08.848Z,632.80
2023-06-19T03:21:08.854Z,632.31
2023-06-19T03:22:08.824Z,632.21
2023-06-19T03:23:08.867Z,632.05
2023-06-19T03:24:08.829Z,632.20
2023-06-19T03:25:08.806Z,631.97
2023-06-19T03:26:08.781Z,631.82
2023-06-19T03:27:08.801Z,632.11
2023-06-19T03:28:08.752Z,631.67
2023-06-19T03:29:08.750Z,631.07
2023-06-19T03:30:08.739Z,630.60
2023-06-19T03:31:08.713Z,629.66
2023-06-19T03:32:08.708Z,629.05
2023-06-19T03:33:08.753Z,628.01
2023-06-19T03:34:08.700Z,626.98
2023-06-19T03:35:08.673Z,626.35
2023-06-19T03:36:08.703Z,625.64
2023-06-19T03:37:08.670Z,624.87
2023-06-19T03:38:08.652Z,624.30
2023-06-19T03:39:08.630Z,623.96
2023-06-19T03:40:08.637Z,623.57
2023-06-19T03:41:08.626Z,622.85
2023-06-19T03:42:08.594Z,621.88
2023-06-19T03:43:08.612Z,620.84
2023-06-19T03:44:08.571Z,619.36
2023-06-19T03:45:08.637Z,618.10
2023-06-19T03:46:08.681Z,616.26
2023-06-19T03:47:08.522Z,614.44
2023-06-19T03:48:08.567Z,613.28
2023-06-19T03:49:08.518Z,612.68
2023-06-19T03:50:19.750Z,612.45
2023-06-19T03:51:09.485Z,612.20
2023-06-19T03:52:08.494Z,612.03
2023-06-19T03:53:08.486Z,612.01
2023-06-19T03:54:08.474Z,611.76
2023-06-19T03:55:08.443Z,612.00
2023-06-19T03:56:08.446Z,612.22
2023-06-19T03:57:08.429Z,612.52
2023-06-19T03:58:08.470Z,613.05
2023-06-19T03:59:08.394Z,613.19
2023-06-19T04:00:08.396Z,613.61
2023-06-19T04:01:08.399Z,614.02
2023-06-19T04:02:08.381Z,614.56
2023-06-19T04:03:08.498Z,614.75
2023-06-19T04:04:08.443Z,614.88
2023-06-19T04:05:08.347Z,615.09
2023-06-19T04:06:08.313Z,615.43
2023-06-19T04:07:08.331Z,615.60
2023-06-19T04:08:08.327Z,616.19
2023-06-19T04:09:08.304Z,616.95
2023-06-19T04:10:08.280Z,617.49
2023-06-19T04:11:08.263Z,618.12
2023-06-19T04:12:08.356Z,618.51
2023-06-19T04:13:08.253Z,619.04
2023-06-19T04:14:08.239Z,619.82
2023-06-19T04:15:08.222Z,620.03
2023-06-19T04:16:08.262Z,620.30
2023-06-19T04:17:08.215Z,620.81
2023-06-19T04:18:08.245Z,620.58
2023-06-19T04:19:08.173Z,620.81
2023-06-19T04:20:08.158Z,620.41
2023-06-19T04:21:08.159Z,620.15
2023-06-19T04:22:08.144Z,620.20
2023-06-19T04:23:08.125Z,620.26
2023-06-19T04:24:08.126Z,620.29
2023-06-19T04:25:08.103Z,620.46
2023-06-19T04:26:08.129Z,620.32
2023-06-19T04:27:08.073Z,619.73
2023-06-19T04:28:08.102Z,619.05
2023-06-19T04:29:08.057Z,618.35
2023-06-19T04:30:08.087Z,617.71
2023-06-19T04:31:08.024Z,617.56
2023-06-19T04:32:08.047Z,617.28
2023-06-19T04:33:08.108Z,616.63
2023-06-19T04:34:08.006Z,616.34
2023-06-19T04:35:07.991Z,616.33
2023-06-19T04:36:07.999Z,615.94
2023-06-19T04:37:08.014Z,615.85
2023-06-19T04:38:07.959Z,615.76
2023-06-19T04:39:07.956Z,615.47
2023-06-19T04:40:07.926Z,615.54
2023-06-19T04:41:07.951Z,615.29
2023-06-19T04:42:07.912Z,615.34
2023-06-19T04:43:07.899Z,615.34
2023-06-19T04:44:07.878Z,615.40
2023-06-19T04:45:07.882Z,615.37
2023-06-19T04:46:07.898Z,614.85
2023-06-19T04:47:07.861Z,614.97
2023-06-19T04:48:07.861Z,615.05
2023-06-19T04:49:07.833Z,615.50
2023-06-19T04:50:07.842Z,615.87
2023-06-19T04:51:07.793Z,615.64
2023-06-19T04:52:07.784Z,615.34
2023-06-19T04:53:07.781Z,615.20
2023-06-19T04:54:07.790Z,614.84
2023-06-19T04:55:07.753Z,614.28
2023-06-19T04:56:07.742Z,613.74
2023-06-19T04:57:07.741Z,613.29
2023-06-19T04:58:07.967Z,610.58
2023-06-19T04:59:08.204Z,610.41
2023-06-19T05:00:07.706Z,611.88
2023-06-19T05:01:08.197Z,611.88
2023-06-19T05:02:07.672Z,611.51
2023-06-19T05:03:07.901Z,610.41
2023-06-19T05:04:07.653Z,610.09
2023-06-19T05:05:07.832Z,610.19
2023-06-19T05:06:07.880Z,608.58
2023-06-19T05:07:07.619Z,608.45
2023-06-19T05:08:07.626Z,609.63
2023-06-19T05:09:07.607Z,610.56
2023-06-19T05:10:07.625Z,610.36
2023-06-19T05:11:07.814Z,610.05
2023-06-19T05:12:07.589Z,609.27
2023-06-19T05:13:07.552Z,609.11
2023-06-19T05:14:07.534Z,609.73
2023-06-19T05:15:07.933Z,609.35
2023-06-19T05:16:08.203Z,608.67
2023-06-19T05:17:08.171Z,608.23
2023-06-19T05:18:07.534Z,608.64
2023-06-19T05:19:07.496Z,608.80
2023-06-19T05:20:07.471Z,609.28
2023-06-19T05:21:07.458Z,609.61
2023-06-19T05:22:07.436Z,609.86
2023-06-19T05:23:07.738Z,609.87
2023-06-19T05:24:07.463Z,610.26
2023-06-19T05:25:07.453Z,610.62
2023-06-19T05:26:07.426Z,610.36
2023-06-19T05:27:07.417Z,610.46
2023-06-19T05:28:07.408Z,611.79
2023-06-19T05:29:07.364Z,612.03
2023-06-19T05:30:07.387Z,610.97
2023-06-19T05:31:07.362Z,609.90
2023-06-19T05:32:07.391Z,609.17
2023-06-19T05:33:07.369Z,609.52
2023-06-19T05:34:07.294Z,609.68
2023-06-19T05:35:07.307Z,609.10
2023-06-19T05:36:07.281Z,608.91
2023-06-19T05:37:07.280Z,608.34
2023-06-19T05:38:07.258Z,609.21
2023-06-19T05:39:07.484Z,611.23
2023-06-19T05:40:07.542Z,610.18
2023-06-19T05:41:07.239Z,608.81
2023-06-19T05:42:07.232Z,611.78
2023-06-19T05:43:07.196Z,614.43
2023-06-19T05:44:07.401Z,610.42
2023-06-19T05:45:07.189Z,608.78
2023-06-19T05:46:07.238Z,607.97
2023-06-19T05:47:07.150Z,607.87
2023-06-19T05:48:07.181Z,607.84
2023-06-19T05:49:07.634Z,608.48
2023-06-19T05:50:07.266Z,613.11
2023-06-19T05:51:07.122Z,612.77
2023-06-19T05:52:07.344Z,612.28
2023-06-19T05:53:07.089Z,610.82
2023-06-19T05:54:07.393Z,610.52
2023-06-19T05:55:07.284Z,611.16
2023-06-19T05:56:07.068Z,610.70
2023-06-19T05:57:07.046Z,610.21
2023-06-19T05:58:07.032Z,610.02
2023-06-19T05:59:07.028Z,611.02
2023-06-19T06:00:07.078Z,610.81
2023-06-19T06:01:07.030Z,607.77
2023-06-19T06:02:07.007Z,608.06
2023-06-19T06:03:07.049Z,611.20
2023-06-19T06:04:07.172Z,611.02
2023-06-19T06:05:06.956Z,611.23
2023-06-19T06:06:07.370Z,610.45
2023-06-19T06:07:07.567Z,610.85
2023-06-19T06:08:07.788Z,609.97
2023-06-19T06:09:06.970Z,608.88
2023-06-19T06:10:06.889Z,607.08
2023-06-19T06:11:06.892Z,606.48
2023-06-19T06:12:07.092Z,607.02
2023-06-19T06:13:07.111Z,606.23
2023-06-19T06:14:06.846Z,605.38
2023-06-19T06:15:06.887Z,605.86
2023-06-19T06:16:06.809Z,606.49
2023-06-19T06:17:06.948Z,606.33
2023-06-19T06:18:07.095Z,605.69
2023-06-19T06:19:06.823Z,604.82
2023-06-19T06:20:07.155Z,604.06
2023-06-19T06:21:07.195Z,601.66
2023-06-19T06:22:07.236Z,602.34
2023-06-19T06:23:06.904Z,603.91
2023-06-19T06:24:06.763Z,604.34
2023-06-19T06:25:06.732Z,602.87
2023-06-19T06:26:06.696Z,602.91
2023-06-19T06:27:06.724Z,601.47
2023-06-19T06:28:06.700Z,600.47
2023-06-19T06:29:06.663Z,600.30
2023-06-19T06:30:06.664Z,600.71
2023-06-19T06:31:06.652Z,601.22
2023-06-19T06:32:06.648Z,601.95
2023-06-19T06:33:06.683Z,600.42
2023-06-19T06:34:06.605Z,598.11
2023-06-19T06:35:06.604Z,600.22
2023-06-19T06:36:08.779Z,595.72
2023-06-19T06:37:07.125Z,594.97
2023-06-19T06:38:06.869Z,596.63
2023-06-19T06:39:06.928Z,598.25
2023-06-19T06:40:06.905Z,597.85
2023-06-19T06:41:06.554Z,596.10
2023-06-19T06:42:06.523Z,593.97
2023-06-19T06:43:06.529Z,594.34
2023-06-19T06:44:06.649Z,595.18
2023-06-19T06:45:06.499Z,594.64
2023-06-19T06:46:06.552Z,594.08
2023-06-19T06:47:06.494Z,593.79
2023-06-19T06:48:06.488Z,594.34
2023-06-19T06:49:06.482Z,594.49
2023-06-19T06:50:06.433Z,594.64
2023-06-19T06:51:06.452Z,593.82
2023-06-19T06:52:06.740Z,593.86
2023-06-19T06:53:06.758Z,594.63
2023-06-19T06:54:06.390Z,595.57
2023-06-19T06:55:06.376Z,597.98
2023-06-19T06:56:06.383Z,600.30
2023-06-19T06:57:06.367Z,599.61
2023-06-19T06:58:06.407Z,598.04
2023-06-19T06:59:06.377Z,596.45
2023-06-19T07:00:06.329Z,596.38
2023-06-19T07:01:06.334Z,597.32
2023-06-19T07:02:06.546Z,598.68
2023-06-19T07:03:06.305Z,601.27
2023-06-19T07:04:06.285Z,602.32
2023-06-19T07:05:06.274Z,601.47
2023-06-19T07:06:06.280Z,601.10
2023-06-19T07:07:06.537Z,615.80
2023-06-19T07:08:06.236Z,604.99
2023-06-19T07:09:06.228Z,600.05
2023-06-19T07:10:06.208Z,609.21
2023-06-19T07:11:06.202Z,612.94
2023-06-19T07:12:06.474Z,608.96
2023-06-19T07:13:06.166Z,605.22
2023-06-19T07:14:06.694Z,599.12
2023-06-19T07:15:06.327Z,594.44
2023-06-19T07:16:06.167Z,591.65
2023-06-19T07:17:06.291Z,590.52
2023-06-19T07:18:06.379Z,595.12
2023-06-19T07:19:06.314Z,600.10
2023-06-19T07:20:06.368Z,590.57
2023-06-19T07:21:06.890Z,621.12
2023-06-19T07:22:06.192Z,598.46
2023-06-19T07:23:06.065Z,629.54
2023-06-19T07:24:06.161Z,600.94
2023-06-19T07:25:06.073Z,597.78
2023-06-19T07:26:06.023Z,597.21
2023-06-19T07:27:06.012Z,596.78
2023-06-19T07:28:06.024Z,601.97
2023-06-19T07:29:06.524Z,604.42
2023-06-19T07:30:06.451Z,602.95
2023-06-19T07:31:06.528Z,601.60
2023-06-19T07:32:06.847Z,603.04
2023-06-19T07:33:05.991Z,603.64
2023-06-19T07:34:05.994Z,605.37
2023-06-19T07:35:05.970Z,605.52
2023-06-19T07:36:05.998Z,603.80
2023-06-19T07:37:06.887Z,599.69
2023-06-19T07:38:05.949Z,595.81
2023-06-19T07:39:06.290Z,595.13
2023-06-19T07:40:06.032Z,592.20
2023-06-19T07:41:05.854Z,592.50
2023-06-19T07:42:05.840Z,591.03
2023-06-19T07:43:05.878Z,592.76
2023-06-19T07:44:05.842Z,596.44
2023-06-19T07:45:05.887Z,600.74
2023-06-19T07:46:05.846Z,625.74
2023-06-19T07:47:05.806Z,622.66
2023-06-19T07:48:06.462Z,605.01
2023-06-19T07:49:05.797Z,617.17
2023-06-19T07:50:05.854Z,614.46
2023-06-19T07:51:05.767Z,611.37
2023-06-19T07:52:05.932Z,596.75
2023-06-19T07:53:05.721Z,602.68
2023-06-19T07:54:05.726Z,608.33
2023-06-19T07:55:06.694Z,616.43
2023-06-19T07:56:05.690Z,619.80
2023-06-19T07:57:06.519Z,615.68
2023-06-19T07:58:05.733Z,617.67
2023-06-19T07:59:06.258Z,615.51
2023-06-19T08:00:05.697Z,608.85
2023-06-19T08:01:05.693Z,623.37
2023-06-19T08:02:05.940Z,629.83
2023-06-19T08:03:06.225Z,612.76
2023-06-19T08:04:05.824Z,603.27
2023-06-19T08:05:05.661Z,599.77
2023-06-19T08:06:05.615Z,590.62
2023-06-19T08:07:05.572Z,585.10
2023-06-19T08:08:05.720Z,582.10
2023-06-19T08:09:05.593Z,582.38
2023-06-19T08:10:12.991Z,585.44
2023-06-19T08:11:06.530Z,583.78
2023-06-19T08:12:05.504Z,583.75
2023-06-19T08:13:05.505Z,586.17
2023-06-19T08:14:05.754Z,587.34
2023-06-19T08:15:05.501Z,588.35
2023-06-19T08:16:05.477Z,588.31
2023-06-19T08:17:05.620Z,588.14
2023-06-19T08:18:05.756Z,589.03
2023-06-19T08:19:05.468Z,591.06
2023-06-19T08:20:05.908Z,597.01
2023-06-19T08:21:06.053Z,598.84
2023-06-19T08:22:05.413Z,597.99
2023-06-19T08:23:06.788Z,595.75
2023-06-19T08:24:05.493Z,592.44
2023-06-19T08:25:05.514Z,586.87
2023-06-19T08:26:06.272Z,587.73
2023-06-19T08:27:05.348Z,582.85
2023-06-19T08:28:06.098Z,582.27
2023-06-19T08:29:05.330Z,589.40
2023-06-19T08:30:05.464Z,590.30
2023-06-19T08:31:05.281Z,590.90
2023-06-19T08:32:05.432Z,591.11
2023-06-19T08:33:06.164Z,589.50
2023-06-19T08:34:05.663Z,589.91
2023-06-19T08:35:05.572Z,584.81
2023-06-19T08:36:06.348Z,586.13
2023-06-19T08:37:06.237Z,586.03
2023-06-19T08:38:06.144Z,587.85
2023-06-19T08:39:05.915Z,584.74
2023-06-19T08:40:05.958Z,586.20
2023-06-19T08:41:05.190Z,583.79
2023-06-19T08:42:06.307Z,584.80
2023-06-19T08:43:05.262Z,585.46
2023-06-19T08:44:06.106Z,584.58
2023-06-19T08:45:05.996Z,587.50
2023-06-19T08:46:07.890Z,588.89
2023-06-19T08:47:06.313Z,586.69
2023-06-19T08:48:05.189Z,583.29
2023-06-19T08:49:06.111Z,588.05
2023-06-19T08:50:05.109Z,586.90
2023-06-19T08:51:05.060Z,586.10
2023-06-19T08:52:05.507Z,587.34
2023-06-19T08:53:05.604Z,586.86
2023-06-19T08:54:05.635Z,586.43
2023-06-19T08:55:06.070Z,586.48
2023-06-19T08:56:05.766Z,585.34
2023-06-19T08:57:05.123Z,585.46
2023-06-19T08:58:05.101Z,584.93
2023-06-19T08:59:06.182Z,587.35
2023-06-19T09:00:06.084Z,586.33
2023-06-19T09:01:05.985Z,587.95
2023-06-19T09:02:05.946Z,589.33
2023-06-19T09:03:14.093Z,595.45
2023-06-19T09:04:06.070Z,598.03
2023-06-19T09:05:06.114Z,593.76
2023-06-19T09:06:05.039Z,588.17
2023-06-19T09:07:06.134Z,585.66
2023-06-19T09:08:04.888Z,587.31
2023-06-19T09:09:04.870Z,582.83
2023-06-19T09:10:04.864Z,581.06
2023-06-19T09:11:04.903Z,580.50
2023-06-19T09:12:05.798Z,580.07
2023-06-19T09:13:04.872Z,581.01
2023-06-19T09:14:04.818Z,582.33
2023-06-19T09:15:04.811Z,581.97
2023-06-19T09:16:04.831Z,580.52
2023-06-19T09:17:04.789Z,578.32
2023-06-19T09:18:04.825Z,577.13
2023-06-19T09:19:04.819Z,577.97
2023-06-19T09:20:04.766Z,577.96
2023-06-19T09:21:04.748Z,579.65
2023-06-19T09:22:04.724Z,580.66
2023-06-19T09:23:04.725Z,582.47
2023-06-19T09:24:04.768Z,581.07
2023-06-19T09:25:04.707Z,582.41
2023-06-19T09:26:04.668Z,582.97
2023-06-19T09:27:04.672Z,582.10
2023-06-19T09:28:04.685Z,582.44
2023-06-19T09:29:04.645Z,585.17
2023-06-19T09:30:04.686Z,586.29
2023-06-19T09:31:04.612Z,582.70
2023-06-19T09:32:04.606Z,581.04
2023-06-19T09:33:04.678Z,579.49
2023-06-19T09:34:04.649Z,581.25
2023-06-19T09:35:04.564Z,579.68
2023-06-19T09:36:06.348Z,578.56
2023-06-19T09:37:04.541Z,576.95
2023-06-19T09:38:04.543Z,576.31
2023-06-19T09:39:04.538Z,576.93
2023-06-19T09:40:04.533Z,576.89
2023-06-19T09:41:04.538Z,573.38
2023-06-19T09:42:04.495Z,573.39
2023-06-19T09:43:04.552Z,575.82
2023-06-19T09:44:04.507Z,573.90
2023-06-19T09:45:04.475Z,571.12
2023-06-19T09:46:04.455Z,569.11
2023-06-19T09:47:04.498Z,572.38
2023-06-19T09:48:04.470Z,573.35
2023-06-19T09:49:04.428Z,571.34
2023-06-19T09:50:04.455Z,571.77
2023-06-19T09:51:04.431Z,570.34
2023-06-19T09:52:04.382Z,569.30
2023-06-19T09:53:05.299Z,568.20
2023-06-19T09:54:04.353Z,567.95
2023-06-19T09:55:04.351Z,567.64
2023-06-19T09:56:04.350Z,567.59
2023-06-19T09:57:04.381Z,567.25
2023-06-19T09:58:04.336Z,567.67
2023-06-19T09:59:04.351Z,569.56
2023-06-19T10:00:04.304Z,570.66
2023-06-19T10:01:04.899Z,569.86
2023-06-19T10:02:04.985Z,569.70
2023-06-19T10:03:04.403Z,569.23
2023-06-19T10:04:04.261Z,568.07
2023-06-19T10:05:04.234Z,567.15
2023-06-19T10:06:05.408Z,558.80
2023-06-19T10:07:04.226Z,554.05
2023-06-19T10:08:04.204Z,553.74
2023-06-19T10:09:04.202Z,555.55
2023-06-19T10:10:04.195Z,569.49
2023-06-19T10:11:05.420Z,569.03
2023-06-19T10:12:04.208Z,567.81
2023-06-19T10:13:04.195Z,566.93
2023-06-19T10:14:04.134Z,567.28
2023-06-19T10:15:04.139Z,566.13
2023-06-19T10:16:04.147Z,564.87
2023-06-19T10:17:04.117Z,564.08
2023-06-19T10:18:04.744Z,564.08
2023-06-19T10:19:05.149Z,564.51
2023-06-19T10:20:04.100Z,564.15
2023-06-19T10:21:04.958Z,565.82
2023-06-19T10:22:04.165Z,566.41
2023-06-19T10:23:04.624Z,566.46
2023-06-19T10:24:04.078Z,565.34
2023-06-19T10:25:04.025Z,564.10
2023-06-19T10:26:04.363Z,562.84
2023-06-19T10:27:04.178Z,561.10
2023-06-19T10:28:03.996Z,561.28
2023-06-19T10:29:03.987Z,560.71
2023-06-19T10:30:16.121Z,561.26
2023-06-19T10:31:05.149Z,561.62
2023-06-19T10:32:03.956Z,563.53
2023-06-19T10:33:04.030Z,564.50
2023-06-19T10:34:03.930Z,566.94
2023-06-19T10:35:04.560Z,566.34
2023-06-19T10:36:03.932Z,563.61
2023-06-19T10:37:03.949Z,561.94
2023-06-19T10:38:03.948Z,566.64
2023-06-19T10:39:03.999Z,559.42
2023-06-19T10:40:04.051Z,563.71
2023-06-19T10:41:03.862Z,562.16
2023-06-19T10:42:05.848Z,558.24
2023-06-19T10:43:03.858Z,559.86
2023-06-19T10:44:03.833Z,559.69
2023-06-19T10:45:03.826Z,556.81
2023-06-19T10:46:03.907Z,552.09
2023-06-19T10:47:03.780Z,553.80
2023-06-19T10:48:03.786Z,553.43
2023-06-19T10:49:03.796Z,553.98
2023-06-19T10:50:03.749Z,554.85
2023-06-19T10:51:03.823Z,554.05
2023-06-19T10:52:04.391Z,551.88
2023-06-19T10:53:04.470Z,557.97
2023-06-19T10:54:03.755Z,559.02
2023-06-19T10:55:03.779Z,560.53
2023-06-19T10:56:03.853Z,561.48
2023-06-19T10:57:03.663Z,554.94
2023-06-19T10:58:03.664Z,554.67
2023-06-19T10:59:03.668Z,558.78
2023-06-19T11:00:03.630Z,557.75
2023-06-19T11:01:03.620Z,555.69
2023-06-19T11:02:03.686Z,554.89
2023-06-19T11:03:03.778Z,552.95
2023-06-19T11:04:03.597Z,553.98
2023-06-19T11:05:03.560Z,553.89
2023-06-19T11:06:03.568Z,553.44
2023-06-19T11:07:03.553Z,553.48
2023-06-19T11:08:04.435Z,554.83
2023-06-19T11:09:03.625Z,554.85
2023-06-19T11:10:03.531Z,553.97
2023-06-19T11:11:03.537Z,550.78
2023-06-19T11:12:03.494Z,551.23
2023-06-19T11:13:03.651Z,553.83
2023-06-19T11:14:03.475Z,552.31
2023-06-19T11:15:03.451Z,549.82
2023-06-19T11:16:03.475Z,548.34
2023-06-19T11:17:03.518Z,548.19
2023-06-19T11:18:03.511Z,547.46
2023-06-19T11:19:03.413Z,548.50
2023-06-19T11:20:03.422Z,546.39
2023-06-19T11:21:03.408Z,543.74
2023-06-19T11:22:04.268Z,535.78
2023-06-19T11:23:03.377Z,537.48
2023-06-19T11:24:03.448Z,540.71
2023-06-19T11:25:03.349Z,537.09
2023-06-19T11:26:04.361Z,548.20
2023-06-19T11:27:03.374Z,537.67
2023-06-19T11:28:03.360Z,537.34
2023-06-19T11:29:03.438Z,541.65
2023-06-19T11:30:03.340Z,548.37
2023-06-19T11:31:03.404Z,547.81
2023-06-19T11:32:04.295Z,546.58
2023-06-19T11:33:03.408Z,545.25
2023-06-19T11:34:03.304Z,543.11
2023-06-19T11:35:03.298Z,543.14
2023-06-19T11:36:03.234Z,543.46
2023-06-19T11:37:03.204Z,542.58
2023-06-19T11:38:03.227Z,538.27
2023-06-19T11:39:03.205Z,537.66
2023-06-19T11:40:03.738Z,539.12
2023-06-19T11:41:03.813Z,545.81
2023-06-19T11:42:03.188Z,547.39
2023-06-19T11:43:03.122Z,547.11
2023-06-19T11:44:03.138Z,545.76
2023-06-19T11:45:03.209Z,543.43
2023-06-19T11:46:03.206Z,542.83
2023-06-19T11:47:03.876Z,542.00
2023-06-19T11:48:03.128Z,540.51
2023-06-19T11:49:07.395Z,537.24
2023-06-19T11:50:03.111Z,532.50
2023-06-19T11:51:03.043Z,534.08
2023-06-19T11:52:03.939Z,532.44
2023-06-19T11:53:03.033Z,533.19
2023-06-19T11:54:03.055Z,532.21
2023-06-19T11:55:03.017Z,534.36
2023-06-19T11:56:03.028Z,533.28
2023-06-19T11:57:02.974Z,534.93
2023-06-19T11:58:02.982Z,532.79
2023-06-19T11:59:03.025Z,533.84
2023-06-19T12:00:02.949Z,537.70
2023-06-19T12:01:02.953Z,541.76
2023-06-19T12:02:04.027Z,541.64
2023-06-19T12:03:03.046Z,541.95
2023-06-19T12:04:03.203Z,539.39
2023-06-19T12:05:02.930Z,535.36
2023-06-19T12:06:02.877Z,538.35
2023-06-19T12:07:04.007Z,543.32
2023-06-19T12:08:02.881Z,528.27
2023-06-19T12:09:03.130Z,528.04
2023-06-19T12:10:03.875Z,532.75
2023-06-19T12:11:02.815Z,547.62
2023-06-19T12:12:02.855Z,547.18
2023-06-19T12:13:02.820Z,545.22
2023-06-19T12:14:03.219Z,538.92
2023-06-19T12:15:02.842Z,541.89
2023-06-19T12:16:04.796Z,546.25
2023-06-19T12:17:02.829Z,531.86
2023-06-19T12:18:02.799Z,535.49
2023-06-19T12:19:02.783Z,534.55
2023-06-19T12:20:03.053Z,534.49
2023-06-19T12:21:02.719Z,534.87
2023-06-19T12:22:02.711Z,536.49
2023-06-19T12:23:03.502Z,537.66
2023-06-19T12:24:02.709Z,551.84
2023-06-19T12:25:02.697Z,534.69
2023-06-19T12:26:03.040Z,549.02
2023-06-19T12:27:02.681Z,545.85
2023-06-19T12:28:02.649Z,542.76